Time;durP1;ratioP1;P1;durP2;ratioP2;P2;SDS_P1;SDS_P2;PMS_P1;PMS_P2;Temp;Humidity;BMP_temperature;BMP_pressure;BME280_temperature;BME280_humidity;BME280_pressure;Samples;Min_cycle;Max_cycle;Signal;HPM_P1;HPM_P2
2022/10/13 00:00:15;;;;;;;6.70;4.50;;;;;;;12.48;69.46;100187.91;4979104;28;20030;-92
2022/10/13 00:02:40;;;;;;;7.55;4.80;;;;;;;12.37;70.06;100178.09;4946624;28;20053;-92
2022/10/13 00:05:06;;;;;;;7.60;4.72;;;;;;;12.37;69.63;100183.50;4943400;28;20015;-92
2022/10/13 00:07:32;;;;;;;10.02;5.20;;;;;;;12.38;69.96;100187.84;4943788;28;20027;-92
2022/10/13 00:09:57;;;;;;;9.25;4.95;;;;;;;12.29;70.44;100188.31;4946076;28;20528;-92
2022/10/13 00:12:23;;;;;;;12.85;5.10;;;;;;;12.29;71.01;100187.50;4946474;28;20030;-92
2022/10/13 00:14:48;;;;;;;13.25;4.95;;;;;;;12.18;70.57;100177.69;4960312;28;20026;-92
2022/10/13 00:17:14;;;;;;;7.55;5.15;;;;;;;12.17;70.87;100182.28;4926601;28;20051;-92
2022/10/13 00:19:39;;;;;;;8.10;4.55;;;;;;;12.10;70.55;100176.31;4943381;28;20034;-92
2022/10/13 00:22:05;;;;;;;8.02;4.97;;;;;;;12.02;71.37;100179.50;4946601;28;20029;-92
2022/10/13 00:24:30;;;;;;;8.38;4.63;;;;;;;12.05;71.44;100184.34;4961911;28;20054;-91
2022/10/13 00:26:56;;;;;;;13.23;5.35;;;;;;;12.03;71.22;100190.00;4942049;28;20485;-92
2022/10/13 00:29:21;;;;;;;8.00;5.00;;;;;;;11.87;71.56;100188.22;4925648;28;20026;-92
2022/10/13 00:31:47;;;;;;;10.10;4.75;;;;;;;11.79;71.89;100178.72;4941618;28;20037;-92
2022/10/13 00:34:12;;;;;;;7.95;5.05;;;;;;;11.81;71.88;100184.69;4958099;28;20026;-92
2022/10/13 00:36:38;;;;;;;8.80;4.93;;;;;;;11.85;71.68;100196.59;4960975;28;20460;-92
2022/10/13 00:39:03;;;;;;;7.85;5.00;;;;;;;11.88;71.47;100193.41;4944957;28;20396;-92
2022/10/13 00:41:29;;;;;;;7.53;5.15;;;;;;;11.73;72.08;100191.34;4941704;28;20489;-91
2022/10/13 00:44:02;;;;;;;9.65;5.00;;;;;;;11.70;72.03;100180.25;4941646;28;20031;-92
2022/10/13 00:46:35;;;;;;;8.48;4.53;;;;;;;11.66;72.40;100187.22;4942061;28;20050;-92
2022/10/13 00:49:11;;;;;;;8.38;4.78;;;;;;;11.66;72.77;100203.41;4941461;28;20436;-92
2022/10/13 00:51:39;;;;;;;5.78;4.43;;;;;;;11.64;73.11;100195.59;4960934;28;20030;-92
2022/10/13 00:54:05;;;;;;;8.07;5.00;;;;;;;11.65;73.27;100196.41;4960815;28;20018;-92
2022/10/13 00:56:31;;;;;;;7.00;4.72;;;;;;;11.57;72.89;100180.66;4945625;28;20034;-92
2022/10/13 00:58:56;;;;;;;7.38;5.03;;;;;;;11.55;73.24;100186.31;4925861;28;20023;-91
2022/10/13 01:01:22;;;;;;;8.93;4.20;;;;;;;11.51;73.25;100190.59;4939265;28;20022;-92
2022/10/13 01:03:47;;;;;;;7.50;4.97;;;;;;;11.47;73.24;100187.56;4944663;28;20022;-92
2022/10/13 01:06:13;;;;;;;9.13;5.18;;;;;;;11.45;73.09;100192.41;4941291;28;20026;-92
2022/10/13 01:08:39;;;;;;;9.70;5.10;;;;;;;11.40;73.58;100186.16;4941479;28;20038;-92
2022/10/13 01:11:13;;;;;;;8.45;4.78;;;;;;;11.50;73.85;100194.38;4941165;28;20038;-92
2022/10/13 01:13:48;;;;;;;10.32;5.18;;;;;;;11.41;74.15;100185.09;4975056;28;20034;-92
2022/10/13 01:16:21;;;;;;;6.65;4.50;;;;;;;11.44;74.17;100195.38;4950810;28;20027;-92
2022/10/13 01:18:49;;;;;;;8.93;4.72;;;;;;;11.44;74.13;100200.78;4941689;28;20062;-92
2022/10/13 01:21:34;;;;;;;8.60;4.90;;;;;;;11.29;73.89;100172.59;4970025;28;20026;-91
2022/10/13 01:24:20;;;;;;;7.43;4.50;;;;;;;11.47;74.63;100198.38;4899603;28;1300277;-92
2022/10/13 01:27:12;;;;;;;8.00;5.07;;;;;;;11.44;74.63;100206.16;4959598;28;20038;-93
2022/10/13 01:29:48;;;;;;;5.55;4.00;;;;;;;11.36;74.62;100193.94;4958373;28;20057;-90
2022/10/13 01:32:30;;;;;;;10.70;5.20;;;;;;;11.37;75.15;100194.75;4977611;28;20037;-92
2022/10/13 01:35:09;;;;;;;10.88;4.75;;;;;;;11.37;74.83;100203.69;4959149;28;20049;-92
2022/10/13 01:37:53;;;;;;;12.57;4.80;;;;;;;11.36;74.73;100195.84;4941873;28;20505;-92
2022/10/13 01:40:22;;;;;;;8.32;4.28;;;;;;;11.38;74.59;100193.69;4980562;28;20080;-92
2022/10/13 01:42:50;;;;;;;10.05;5.15;;;;;;;11.33;74.98;100195.28;4976932;28;20038;-92
2022/10/13 01:45:17;;;;;;;6.90;4.32;;;;;;;11.24;74.63;100186.00;4971936;28;20452;-92
2022/10/13 01:47:42;;;;;;;8.90;4.78;;;;;;;11.23;74.54;100175.47;4941318;28;20030;-92
2022/10/13 01:50:08;;;;;;;9.10;5.22;;;;;;;11.16;74.45;100159.47;4925185;28;20030;-92
2022/10/13 01:52:35;;;;;;;8.27;5.32;;;;;;;11.20;74.45;100176.78;4941431;28;20029;-92
2022/10/13 01:55:06;;;;;;;7.18;5.13;;;;;;;11.15;74.76;100181.31;4941915;28;20031;-92
2022/10/13 01:57:33;;;;;;;8.38;5.45;;;;;;;11.04;74.83;100170.41;4925564;28;20477;-92
2022/10/13 02:00:01;;;;;;;11.10;4.60;;;;;;;11.06;75.16;100181.75;4925716;28;20026;-92
2022/10/13 02:02:56;;;;;;;6.60;4.32;;;;;;;10.96;75.36;100189.72;4925789;28;20565;-92
2022/10/13 02:05:52;;;;;;;7.88;4.85;;;;;;;10.78;75.75;100169.28;4952438;28;20039;-92
2022/10/13 02:08:23;;;;;;;6.05;4.15;;;;;;;10.81;75.84;100189.50;4943228;28;20409;-92
2022/10/13 02:11:06;;;;;;;7.70;4.47;;;;;;;10.78;76.14;100187.31;4950394;28;20053;-92
2022/10/13 02:13:31;;;;;;;6.15;3.97;;;;;;;10.68;76.13;100179.91;4960384;28;20062;-93
2022/10/13 02:15:58;;;;;;;7.53;4.70;;;;;;;10.59;76.50;100166.06;4941161;28;20026;-93
2022/10/13 02:18:31;;;;;;;7.45;4.95;;;;;;;10.64;76.36;100166.13;4925454;28;20058;-92
2022/10/13 02:20:56;;;;;;;8.90;4.63;;;;;;;10.56;75.64;100152.28;4957250;28;20054;-92
2022/10/13 02:23:22;;;;;;;7.05;4.57;;;;;;;10.48;76.21;100148.16;4957555;28;20118;-92
2022/10/13 02:25:48;;;;;;;9.77;5.90;;;;;;;10.52;76.69;100165.41;4972927;28;20050;-92
2022/10/13 02:28:14;;;;;;;11.95;4.90;;;;;;;10.51;76.39;100155.72;4959081;28;20038;-92
2022/10/13 02:30:40;;;;;;;7.43;4.82;;;;;;;10.52;76.55;100151.97;4956981;28;20038;-92
2022/10/13 02:33:05;;;;;;;11.95;5.72;;;;;;;10.42;76.45;100141.06;4957995;28;20031;-92
2022/10/13 02:35:31;;;;;;;8.75;5.25;;;;;;;10.50;76.37;100162.19;4960365;28;20083;-91
2022/10/13 02:37:57;;;;;;;6.63;4.25;;;;;;;10.44;76.93;100149.72;4944026;28;20082;-92
2022/10/13 02:40:23;;;;;;;8.13;4.85;;;;;;;10.31;76.67;100140.94;4940598;28;20034;-91
2022/10/13 02:42:48;;;;;;;8.35;4.65;;;;;;;10.45;76.84;100154.03;4925222;28;20038;-92
2022/10/13 02:45:14;;;;;;;7.82;4.60;;;;;;;10.31;76.98;100126.63;4957459;28;20086;-91
2022/10/13 02:47:39;;;;;;;7.75;4.75;;;;;;;10.28;76.88;100137.88;4973208;28;20022;-91
2022/10/13 02:50:07;;;;;;;9.23;4.72;;;;;;;10.28;76.73;100140.56;4957218;28;20030;-92
2022/10/13 02:52:33;;;;;;;7.47;5.07;;;;;;;10.11;76.90;100127.16;4957546;28;20031;-92
2022/10/13 02:54:58;;;;;;;8.90;4.20;;;;;;;10.20;76.98;100141.81;4943593;28;20527;-91
2022/10/13 02:57:24;;;;;;;6.45;4.35;;;;;;;10.34;77.36;100160.34;4959329;28;20026;-91
2022/10/13 02:59:49;;;;;;;7.03;4.30;;;;;;;10.19;77.32;100139.34;4942359;28;20580;-92
2022/10/13 03:02:15;;;;;;;6.35;4.55;;;;;;;10.25;77.21;100154.50;4924423;28;20462;-91
2022/10/13 03:04:41;;;;;;;8.15;5.07;;;;;;;10.11;76.96;100140.59;4925331;28;20489;-93
2022/10/13 03:07:06;;;;;;;8.73;5.40;;;;;;;10.14;76.88;100147.38;4961578;28;20030;-93
2022/10/13 03:09:32;;;;;;;11.07;5.70;;;;;;;10.16;76.80;100139.84;4943899;28;20030;-91
2022/10/13 03:11:57;;;;;;;8.25;5.20;;;;;;;10.28;76.36;100140.56;4940215;28;20035;-91
2022/10/13 03:14:23;;;;;;;8.50;4.72;;;;;;;10.47;75.43;100143.81;4924540;28;20034;-92
2022/10/13 03:16:48;;;;;;;7.93;4.47;;;;;;;10.48;74.65;100138.19;4954561;28;20031;-93
2022/10/13 03:19:14;;;;;;;8.05;5.10;;;;;;;10.64;74.04;100138.38;4940926;28;20027;-92
2022/10/13 03:21:39;;;;;;;7.63;4.53;;;;;;;10.77;73.01;100150.66;4943444;28;20488;-91
2022/10/13 03:24:05;;;;;;;7.78;4.35;;;;;;;10.84;72.39;100145.91;4943138;28;20038;-92
2022/10/13 03:26:31;;;;;;;8.13;4.68;;;;;;;10.67;72.46;100136.03;4943323;28;20030;-92
2022/10/13 03:28:57;;;;;;;6.22;4.07;;;;;;;10.61;72.64;100138.91;4943723;28;20092;-91
2022/10/13 03:31:22;;;;;;;8.85;4.90;;;;;;;10.78;72.72;100147.72;4929419;28;20022;-91
2022/10/13 03:33:48;;;;;;;9.23;4.30;;;;;;;10.36;73.78;100126.72;4924359;28;20027;-91
2022/10/13 03:36:13;;;;;;;6.85;4.25;;;;;;;10.40;73.72;100146.69;4937357;28;20117;-91
2022/10/13 03:38:40;;;;;;;10.45;4.25;;;;;;;10.40;73.23;100156.66;4959886;28;20029;-92
2022/10/13 03:41:16;;;;;;;6.60;3.95;;;;;;;10.55;72.42;100138.00;4959422;28;20447;-91
2022/10/13 03:43:42;;;;;;;5.28;3.75;;;;;;;10.46;72.45;100129.56;4959910;28;20480;-91
2022/10/13 03:46:28;;;;;;;5.63;3.80;;;;;;;10.42;72.51;100136.50;4943949;28;20018;-91
2022/10/13 03:48:54;;;;;;;9.57;4.25;;;;;;;10.21;73.39;100142.63;4944615;28;20117;-91
2022/10/13 03:51:22;;;;;;;6.20;3.45;;;;;;;10.12;73.88;100134.94;4945704;28;20484;-92
2022/10/13 03:53:48;;;;;;;6.20;3.70;;;;;;;10.28;72.85;100138.69;4946981;28;20053;-91
2022/10/13 03:56:22;;;;;;;10.70;4.25;;;;;;;10.32;72.69;100126.41;4946322;28;20053;-91
2022/10/13 03:58:52;;;;;;;5.65;3.95;;;;;;;10.16;73.26;100124.53;4947384;28;20034;-92
2022/10/13 04:01:18;;;;;;;6.72;3.97;;;;;;;10.06;73.71;100129.75;4934387;28;20031;-92
2022/10/13 04:03:44;;;;;;;6.53;4.07;;;;;;;10.16;73.74;100140.66;4927629;28;20050;-92
2022/10/13 04:06:09;;;;;;;6.63;4.25;;;;;;;10.11;73.33;100121.78;4939459;28;20027;-91
2022/10/13 04:08:35;;;;;;;6.05;4.13;;;;;;;10.28;73.16;100152.16;4966816;28;20026;-91
2022/10/13 04:11:08;;;;;;;6.72;4.07;;;;;;;10.17;73.52;100134.25;4943561;28;20031;-92
2022/10/13 04:13:35;;;;;;;11.27;4.10;;;;;;;10.16;72.94;100126.41;4938155;28;20528;-91
2022/10/13 04:16:05;;;;;;;6.22;4.10;;;;;;;10.18;72.57;100126.97;4938100;28;20034;-91
2022/10/13 04:18:31;;;;;;;7.32;4.38;;;;;;;10.29;72.73;100134.13;4930936;28;20034;-95
2022/10/13 04:20:56;;;;;;;6.15;4.18;;;;;;;10.15;73.61;100138.22;4928892;28;20082;-95
2022/10/13 04:23:22;;;;;;;7.50;3.90;;;;;;;10.22;73.25;100130.81;4939769;28;20038;-94
2022/10/13 04:25:48;;;;;;;5.80;4.03;;;;;;;10.28;72.84;100136.00;4944834;28;20433;-96
2022/10/13 04:28:13;;;;;;;8.43;4.47;;;;;;;10.26;73.19;100134.63;4930922;28;20030;-96
2022/10/13 04:30:39;;;;;;;7.30;5.15;;;;;;;10.06;74.27;100141.31;4946339;28;20121;-92
2022/10/13 04:33:04;;;;;;;9.27;5.10;;;;;;;9.82;74.85;100115.69;4944221;28;20485;-94
2022/10/13 04:35:30;;;;;;;8.68;5.20;;;;;;;10.00;74.75;100138.81;4944045;28;20062;-95
2022/10/13 04:37:58;;;;;;;8.32;6.05;;;;;;;9.99;75.23;100151.44;4944166;28;20031;-96
2022/10/13 04:40:24;;;;;;;8.38;5.55;;;;;;;9.95;75.16;100138.75;4945357;28;20489;-95
2022/10/13 04:42:56;;;;;;;13.18;5.50;;;;;;;9.89;75.50;100141.34;4929406;28;20031;-96
2022/10/13 04:45:22;;;;;;;12.90;5.70;;;;;;;9.88;75.33;100128.16;4951631;28;20065;-93
2022/10/13 04:48:24;;;;;;;24.20;13.77;;;;;;;10.07;74.85;100148.34;4938442;28;20058;-93
2022/10/13 04:51:06;;;;;;;15.57;6.55;;;;;;;9.88;74.93;100128.16;4934221;28;20026;-96
2022/10/13 04:53:37;;;;;;;11.45;4.88;;;;;;;9.88;75.22;100133.53;4945318;28;20039;-96
2022/10/13 04:56:14;;;;;;;11.05;7.13;;;;;;;9.60;75.83;100118.28;4932698;28;20039;-96
2022/10/13 04:58:40;;;;;;;15.30;8.93;;;;;;;9.66;76.20;100120.00;4961742;28;20030;-93
2022/10/13 05:01:06;;;;;;;13.60;8.85;;;;;;;9.64;75.69;100124.78;4948443;28;20038;-96
2022/10/13 05:03:38;;;;;;;7.32;5.05;;;;;;;9.67;75.92;100132.34;4951291;28;20026;-96
2022/10/13 05:06:04;;;;;;;9.27;5.30;;;;;;;9.72;75.67;100140.53;4948559;28;20125;-94
2022/10/13 05:08:36;;;;;;;9.05;4.75;;;;;;;9.74;75.72;100151.84;4936260;28;20031;-94
2022/10/13 05:11:02;;;;;;;10.02;4.82;;;;;;;9.64;75.43;100128.28;4935860;28;20033;-94
2022/10/13 05:13:28;;;;;;;8.38;4.95;;;;;;;9.72;75.55;100137.84;4943512;28;20031;-94
2022/10/13 05:15:56;;;;;;;7.55;5.30;;;;;;;9.77;75.02;100137.09;4961636;28;20522;-93
2022/10/13 05:18:57;;;;;;;10.88;6.32;;;;;;;9.82;75.63;100140.69;4938680;28;20026;-93
2022/10/13 05:21:32;;;;;;;11.02;6.03;;;;;;;10.03;75.42;100157.97;4989609;28;20065;-93
2022/10/13 05:24:29;;;;;;;11.68;4.90;;;;;;;9.93;75.11;100135.47;4965931;28;20042;-96
2022/10/13 05:27:16;;;;;;;12.05;5.28;;;;;;;10.09;74.78;100134.66;4962014;28;20062;-96
2022/10/13 05:29:41;;;;;;;10.25;5.18;;;;;;;10.18;74.13;100143.94;4975197;28;20492;-96
2022/10/13 05:35:43;;;;;;;11.48;5.22;;;;;;;10.36;74.10;100161.72;4929174;29;20039;-93
2022/10/13 05:38:09;;;;;;;9.18;5.22;;;;;;;10.44;73.84;100158.59;4933695;28;20121;-95
2022/10/13 05:40:34;;;;;;;9.25;5.05;;;;;;;10.41;73.44;100140.25;4930494;28;20033;-95
2022/10/13 05:43:47;;;;;;;7.10;4.60;;;;;;;10.55;72.41;100148.78;4958593;28;20038;-95
2022/10/13 05:46:36;;;;;;;9.23;4.05;;;;;;;10.70;71.63;100165.13;4897561;29;20041;-96
2022/10/13 05:49:05;;;;;;;9.70;4.93;;;;;;;10.72;72.10;100154.94;4855361;29;20124;-95
2022/10/13 05:55:10;;;;;;;6.75;4.60;;;;;;;10.92;71.09;100173.22;5129971;23;20081;-96
2022/10/13 05:57:42;;;;;;;11.52;5.97;;;;;;;10.91;70.60;100168.09;4987103;28;20081;-96
2022/10/13 06:00:30;;;;;;;6.53;3.97;;;;;;;10.76;70.94;100157.94;4974248;28;20078;-96
2022/10/13 06:03:04;;;;;;;9.07;5.40;;;;;;;10.99;71.48;100183.81;4974789;28;20113;-95
2022/10/13 06:05:33;;;;;;;11.23;4.93;;;;;;;10.92;70.60;100169.72;4963522;28;20023;-95
2022/10/13 06:07:59;;;;;;;7.18;4.80;;;;;;;11.03;70.15;100171.47;4966268;28;20034;-95
2022/10/13 06:10:32;;;;;;;9.20;4.47;;;;;;;11.17;70.25;100195.34;4951258;28;20053;-95
2022/10/13 06:13:36;;;;;;;;;;;;;;;;;;;;;
2022/10/13 06:16:05;;;;;;;7.78;4.13;;;;;;;11.23;69.35;100164.69;4941801;29;20079;-96
2022/10/13 06:18:31;;;;;;;7.93;3.70;;;;;;;11.36;69.04;100174.25;4893545;29;20039;-94
2022/10/13 06:20:56;;;;;;;7.40;3.92;;;;;;;11.62;69.07;100196.88;4897954;29;20046;-95
2022/10/13 06:23:22;;;;;;;10.27;4.57;;;;;;;11.64;68.82;100192.91;4905899;29;20042;-92
2022/10/13 06:25:49;;;;;;;8.48;4.47;;;;;;;11.55;68.84;100185.50;4910947;29;20027;-92
2022/10/13 06:28:17;;;;;;;8.52;4.55;;;;;;;11.50;69.12;100186.28;4910810;29;20119;-91
2022/10/13 06:30:45;;;;;;;8.05;4.55;;;;;;;11.58;68.67;100172.34;4897282;29;20035;-92
2022/10/13 06:33:13;;;;;;;8.57;4.78;;;;;;;11.57;68.52;100164.50;4932247;29;20418;-93
2022/10/13 06:35:38;;;;;;;9.32;4.93;;;;;;;11.83;68.55;100184.41;4900975;29;20047;-91
2022/10/13 06:38:13;;;;;;;8.25;4.75;;;;;;;11.95;68.59;100198.56;4891172;29;20143;-92
2022/10/13 06:40:43;;;;;;;9.00;5.30;;;;;;;11.75;68.55;100163.31;4915840;29;20039;-93
2022/10/13 06:43:16;;;;;;;7.78;4.53;;;;;;;11.89;68.45;100178.84;4906093;28;20036;-93
2022/10/13 06:45:42;;;;;;;11.95;4.65;;;;;;;12.06;67.25;100169.81;4961770;28;20014;-93
2022/10/13 06:48:08;;;;;;;7.18;4.40;;;;;;;12.11;67.85;100177.94;4947690;28;20105;-94
2022/10/13 06:50:33;;;;;;;7.95;4.47;;;;;;;12.07;67.28;100157.91;4944670;28;20382;-92
2022/10/13 06:53:17;;;;;;;7.30;4.40;;;;;;;12.21;66.50;100169.09;4949546;28;20596;-95
2022/10/13 06:55:42;;;;;;;8.18;5.10;;;;;;;12.24;66.79;100169.41;4948529;28;20061;-95
2022/10/13 06:58:24;;;;;;;6.90;4.75;;;;;;;12.50;67.39;100189.25;4950699;28;20031;-92
2022/10/13 07:00:50;;;;;;;12.45;5.75;;;;;;;12.45;66.67;100159.53;4946544;28;20523;-92
2022/10/13 07:03:18;;;;;;;15.45;7.43;;;;;;;12.66;66.78;100173.97;4934852;28;20031;-92
2022/10/13 07:05:44;;;;;;;8.35;5.95;;;;;;;12.67;66.58;100177.47;4960843;28;20023;-92
2022/10/13 07:08:10;;;;;;;8.85;4.63;;;;;;;12.69;66.04;100180.72;4967936;28;20022;-93
2022/10/13 07:10:37;;;;;;;12.48;5.15;;;;;;;12.66;66.58;100176.66;4975831;28;20074;-92
2022/10/13 07:13:03;;;;;;;8.57;5.47;;;;;;;12.70;66.01;100163.41;4957431;28;20030;-92
2022/10/13 07:15:28;;;;;;;9.02;6.55;;;;;;;12.68;65.64;100171.00;4941269;28;20023;-94
2022/10/13 07:17:54;;;;;;;7.95;4.35;;;;;;;12.73;65.49;100160.22;4941814;28;20046;-92
2022/10/13 07:20:22;;;;;;;9.57;4.95;;;;;;;12.75;65.81;100155.34;4926762;28;20030;-95
2022/10/13 07:22:48;;;;;;;9.48;4.95;;;;;;;12.91;65.47;100167.84;4926255;28;20090;-93
2022/10/13 07:25:14;;;;;;;98.90;56.75;;;;;;;12.97;65.27;100155.19;4926171;28;20027;-94
2022/10/13 07:27:42;;;;;;;376.98;229.45;;;;;;;13.19;65.28;100157.66;4960610;28;20026;-96
2022/10/13 07:30:08;;;;;;;14.25;7.13;;;;;;;13.44;64.13;100161.53;4930846;28;20123;-95
2022/10/13 07:32:34;;;;;;;33.70;17.52;;;;;;;13.68;63.64;100169.97;4961170;28;20027;-93
2022/10/13 07:35:00;;;;;;;8.18;5.72;;;;;;;13.88;63.52;100171.84;4946071;28;20027;-96
2022/10/13 07:37:28;;;;;;;6.63;5.00;;;;;;;13.88;62.86;100156.44;4945155;28;20049;-93
2022/10/13 07:39:54;;;;;;;14.93;6.70;;;;;;;13.89;63.08;100152.66;4944122;28;20035;-92
2022/10/13 07:42:20;;;;;;;7.28;4.53;;;;;;;14.23;61.74;100171.03;4947401;28;20489;-94
2022/10/13 07:44:45;;;;;;;7.70;4.25;;;;;;;14.14;60.93;100153.72;4944262;28;20037;-94
2022/10/13 07:47:15;;;;;;;7.70;4.28;;;;;;;14.29;61.18;100152.88;4940224;28;20563;-91
2022/10/13 07:49:44;;;;;;;9.98;4.53;;;;;;;14.28;61.01;100137.72;4953971;28;20034;-91
2022/10/13 07:52:15;;;;;;;10.52;4.40;;;;;;;14.65;61.00;100163.66;4952588;28;20039;-91
2022/10/13 07:54:41;;;;;;;8.90;4.63;;;;;;;14.63;60.56;100146.84;4963144;28;20043;-91
2022/10/13 07:57:07;;;;;;;11.80;5.53;;;;;;;14.79;60.38;100134.06;4943962;28;20055;-92
2022/10/13 07:59:34;;;;;;;8.88;4.47;;;;;;;15.06;59.48;100147.22;4931741;28;20042;-96
2022/10/13 08:02:01;;;;;;;7.30;3.88;;;;;;;15.20;59.32;100152.84;4946864;28;20041;-94
2022/10/13 08:04:33;;;;;;;6.22;4.00;;;;;;;15.16;58.73;100134.41;4928637;28;20496;-94
2022/10/13 08:07:01;;;;;;;10.55;6.70;;;;;;;15.26;59.31;100138.16;4959848;28;20034;-92
2022/10/13 08:09:30;;;;;;;9.90;5.57;;;;;;;15.20;58.51;100118.38;4960762;28;20398;-92
2022/10/13 08:12:02;;;;;;;6.72;4.60;;;;;;;15.47;57.76;100122.56;4973052;28;20476;-93
2022/10/13 08:14:43;;;;;;;8.90;4.18;;;;;;;15.69;57.80;100127.56;4971450;28;20069;-94
2022/10/13 08:17:09;;;;;;;8.90;4.40;;;;;;;15.83;57.52;100141.31;4949287;28;20046;-91
2022/10/13 08:20:34;;;;;;;8.27;4.22;;;;;;;15.84;57.27;100141.03;4981916;28;20141;-94
2022/10/13 08:23:00;;;;;;;9.25;3.72;;;;;;;15.68;57.20;100115.88;4937869;29;20131;-93
2022/10/13 08:25:27;;;;;;;9.02;5.07;;;;;;;15.84;57.71;100118.50;4904725;29;20094;-95
2022/10/13 08:28:02;;;;;;;7.93;4.15;;;;;;;15.98;57.57;100118.63;4910260;29;20039;-93
2022/10/13 08:30:33;;;;;;;22.08;11.85;;;;;;;15.99;57.49;100131.13;4915835;29;20048;-92
2022/10/13 08:33:04;;;;;;;14.38;6.07;;;;;;;15.95;58.02;100120.81;4905147;29;20054;-93
2022/10/13 08:35:33;;;;;;;5.80;3.80;;;;;;;16.07;56.34;100117.72;4890247;29;20040;-93
2022/10/13 08:38:02;;;;;;;7.57;4.15;;;;;;;16.21;55.77;100120.59;4889260;29;20291;-95
2022/10/13 08:40:34;;;;;;;10.00;4.15;;;;;;;16.26;55.35;100109.66;4919776;29;20126;-94
2022/10/13 08:43:00;;;;;;;5.72;3.25;;;;;;;16.46;55.20;100113.28;4889636;29;20165;-94
2022/10/13 08:45:33;;;;;;;4.95;3.00;;;;;;;16.66;54.06;100115.72;4920382;29;20730;-93
2022/10/13 08:48:04;;;;;;;7.88;3.72;;;;;;;16.79;52.55;100114.22;4903616;29;20044;-94
2022/10/13 08:50:34;;;;;;;9.95;4.55;;;;;;;16.74;51.97;100106.91;4894161;29;20044;-94
2022/10/13 08:53:49;;;;;;;8.35;3.58;;;;;;;16.85;51.10;100106.81;4917408;28;20040;-94
2022/10/13 08:56:19;;;;;;;9.05;3.78;;;;;;;17.04;51.45;100137.59;4962997;28;20121;-93
2022/10/13 08:58:49;;;;;;;3.40;2.58;;;;;;;17.09;50.33;100131.25;4956164;28;20114;-93
2022/10/13 09:04:59;;;;;;;6.55;3.58;;;;;;;17.49;49.74;100127.16;4960469;29;20034;-94
2022/10/13 09:07:33;;;;;;;8.00;3.17;;;;;;;17.58;48.86;100119.13;4940239;29;20042;-93
2022/10/13 09:09:59;;;;;;;6.03;2.42;;;;;;;17.36;47.27;100104.19;4942256;29;20039;-92
2022/10/13 09:12:40;;;;;;;;;;;;;;;;;;;;;
2022/10/13 09:15:23;;;;;;;3.08;2.10;;;;;;;17.65;46.43;100107.84;4944023;29;20047;-94
2022/10/13 09:18:33;;;;;;;22.20;14.23;;;;;;;17.76;44.98;100114.72;4942422;29;20063;-92
2022/10/13 09:21:23;;;;;;;5.20;3.40;;;;;;;17.72;44.18;100106.34;4901590;29;20039;-92
2022/10/13 09:24:17;;;;;;;5.25;3.17;;;;;;;17.77;44.14;100127.25;4887181;29;20028;-92
2022/10/13 09:27:28;;;;;;;29.10;12.15;;;;;;;17.91;44.66;100122.69;4905057;29;20128;-95
2022/10/13 09:29:53;;;;;;;4.45;2.30;;;;;;;17.70;43.95;100094.94;4903042;29;20044;-95
2022/10/13 09:32:20;;;;;;;6.20;2.22;;;;;;;17.76;43.47;100082.88;4917102;29;20039;-93
2022/10/13 09:42:37;;;;;;;;;;;;;;;;;;;;;
2022/10/13 09:45:22;;;;;;;3.28;2.15;;;;;;;18.42;42.35;100104.56;4843470;29;20056;-92
2022/10/13 09:48:05;;;;;;;2.55;1.83;;;;;;;18.33;41.31;100077.19;4845018;29;20045;-91
2022/10/13 09:50:33;;;;;;;7.90;2.83;;;;;;;18.43;41.21;100100.75;4830138;29;20098;-95
2022/10/13 09:53:22;;;;;;;3.28;1.80;;;;;;;18.54;41.15;100104.88;4937666;28;20045;-93
2022/10/13 09:55:48;;;;;;;8.98;5.75;;;;;;;18.48;40.67;100094.38;4952680;28;20071;-94
2022/10/13 09:58:28;;;;;;;8.70;3.28;;;;;;;18.63;40.62;100098.69;4928305;28;20174;-94
2022/10/13 10:04:34;;;;;;;3.35;1.90;;;;;;;18.49;38.17;100082.34;4933366;29;20151;-94
2022/10/13 10:07:28;;;;;;;3.67;1.77;;;;;;;18.56;37.74;100086.28;4891584;29;20065;-96
2022/10/13 10:09:58;;;;;;;7.18;3.40;;;;;;;18.65;38.13;100078.19;4913310;29;20040;-96
2022/10/13 10:12:29;;;;;;;4.53;2.15;;;;;;;18.78;38.01;100073.84;4900251;29;20050;-95
2022/10/13 10:15:24;;;;;;;5.97;2.50;;;;;;;18.63;37.85;100052.34;4908152;29;20043;-96
2022/10/13 10:18:18;;;;;;;6.35;2.00;;;;;;;18.89;37.25;100052.63;4935455;29;20158;-92
2022/10/13 10:21:33;;;;;;;7.13;2.20;;;;;;;19.04;36.27;100082.28;4942399;29;20042;-96
2022/10/13 10:24:19;;;;;;;13.07;7.75;;;;;;;18.94;36.25;100079.78;4922052;29;20035;-91
2022/10/13 10:27:03;;;;;;;9.52;3.80;;;;;;;18.85;36.07;100057.88;4934709;29;20501;-94
2022/10/13 10:29:54;;;;;;;4.38;1.90;;;;;;;19.00;35.63;100048.53;4920331;29;20047;-95
2022/10/13 10:32:44;;;;;;;4.10;1.70;;;;;;;19.23;34.82;100065.75;4912416;29;20038;-95
2022/10/13 10:35:47;;;;;;;3.95;1.65;;;;;;;19.26;34.04;100067.88;4907656;29;20092;-90
2022/10/13 10:38:41;;;;;;;9.88;5.63;;;;;;;19.33;33.49;100056.50;4938708;29;20038;-95
2022/10/13 10:44:47;;;;;;;10.15;2.67;;;;;;;19.31;34.47;100018.59;4986957;28;20552;-95
2022/10/13 10:48:05;;;;;;;4.47;2.50;;;;;;;19.40;33.74;100024.09;4931074;28;20042;-93
2022/10/13 10:50:38;;;;;;;3.35;1.90;;;;;;;19.31;34.00;100025.97;4975814;28;20042;-93
2022/10/13 10:53:31;;;;;;;2.88;1.60;;;;;;;19.52;33.96;100029.00;4959731;28;20025;-92
2022/10/13 10:56:02;;;;;;;4.50;2.05;;;;;;;19.48;33.93;100022.53;4994466;28;20031;-91
2022/10/13 10:59:06;;;;;;;7.88;2.15;;;;;;;19.56;33.47;100021.78;4959490;28;20344;-90
2022/10/13 11:02:13;;;;;;;2.70;1.88;;;;;;;19.59;32.75;100023.91;4962795;28;20093;-94
2022/10/13 11:04:46;;;;;;;54.05;33.35;;;;;;;19.60;32.90;100006.41;4904242;29;20519;-92
2022/10/13 11:10:20;;;;;;;3.03;1.90;;;;;;;19.42;31.26;99996.47;4986839;28;20067;-94
2022/10/13 11:12:54;;;;;;;3.17;1.98;;;;;;;19.50;32.06;99998.47;4944695;28;20045;-91
2022/10/13 11:15:24;;;;;;;13.07;9.02;;;;;;;19.45;31.44;99995.88;4992474;28;20057;-94
2022/10/13 11:17:53;;;;;;;3.72;1.98;;;;;;;19.53;31.46;99992.38;4944835;28;20030;-94
2022/10/13 11:20:25;;;;;;;6.95;1.80;;;;;;;19.49;31.53;99999.59;4945964;28;20489;-93
2022/10/13 11:23:00;;;;;;;2.00;1.40;;;;;;;19.54;31.27;99992.06;4979995;28;20031;-91
2022/10/13 11:25:44;;;;;;;2.65;1.40;;;;;;;19.50;30.38;99982.06;4992457;28;20105;-90
2022/10/13 11:28:19;;;;;;;3.85;1.50;;;;;;;19.46;30.10;99981.09;4945836;28;20094;-96
2022/10/13 11:30:48;;;;;;;3.35;1.70;;;;;;;19.30;30.58;99947.88;4982811;28;20030;-95
2022/10/13 11:34:13;;;;;;;2.85;1.65;;;;;;;19.36;29.91;99973.94;4949535;28;20030;-93
2022/10/13 11:36:41;;;;;;;2.90;1.92;;;;;;;19.33;31.50;99963.66;4907467;29;20040;-92
2022/10/13 11:39:28;;;;;;;2.33;1.40;;;;;;;19.12;29.93;99963.38;4918479;29;20079;-93
2022/10/13 11:42:08;;;;;;;14.13;4.05;;;;;;;19.30;29.82;99961.53;4968454;28;20031;-92
2022/10/13 11:44:50;;;;;;;2.58;1.77;;;;;;;19.26;30.57;99941.44;4980776;28;20022;-92
2022/10/13 11:47:56;;;;;;;2.50;1.50;;;;;;;19.42;30.23;99961.78;4983113;28;20504;-93
2022/10/13 11:50:55;;;;;;;4.00;1.63;;;;;;;19.38;30.16;99942.50;4971276;28;20023;-94
2022/10/13 11:53:51;;;;;;;4.10;2.53;;;;;;;19.37;29.97;99932.69;4932669;28;20026;-92
2022/10/13 11:56:43;;;;;;;4.05;1.42;;;;;;;19.42;29.53;99936.41;4960751;28;20042;-93
2022/10/13 11:59:28;;;;;;;5.85;1.60;;;;;;;19.53;28.46;99945.94;4964029;28;20034;-91
2022/10/13 12:02:06;;;;;;;5.63;3.28;;;;;;;19.42;29.37;99918.09;4930297;28;20142;-92
2022/10/13 12:04:31;;;;;;;8.00;4.03;;;;;;;19.48;29.35;99925.03;4957581;28;20485;-91
2022/10/13 12:07:08;;;;;;;5.53;1.92;;;;;;;19.57;29.47;99911.41;4980156;28;20068;-92
2022/10/13 12:09:39;;;;;;;4.95;2.38;;;;;;;19.72;29.15;99932.06;4954422;28;20026;-94
2022/10/13 12:12:23;;;;;;;3.17;2.00;;;;;;;19.58;28.93;99919.28;4964536;28;20034;-94
2022/10/13 12:14:51;;;;;;;5.75;2.72;;;;;;;19.53;27.88;99926.84;4955218;28;20068;-95
2022/10/13 12:17:50;;;;;;;23.98;15.45;;;;;;;19.66;28.48;99938.78;4937159;28;20027;-95
2022/10/13 12:20:41;;;;;;;20.88;10.98;;;;;;;19.49;28.37;99920.38;5001311;28;20030;-96
2022/10/13 12:23:34;;;;;;;5.17;2.23;;;;;;;19.61;28.91;99925.22;4969504;28;20034;-95
2022/10/13 12:26:07;;;;;;;2.75;1.90;;;;;;;19.59;28.02;99918.19;4953450;28;20034;-95